Time;durP1;ratioP1;P1;durP2;ratioP2;P2;SDS_P1;SDS_P2;PMS_P1;PMS_P2;Temp;Humidity;BMP_temperature;BMP_pressure;BME280_temperature;BME280_humidity;BME280_pressure;Samples;Min_cycle;Max_cycle;Signal;HPM_P1;HPM_P2
2023/05/28 00:01:32;;;;;;;10.48;4.95;;;15.90;82.40;;;;;;6242693;23;20000;-74
2023/05/28 00:03:57;;;;;;;9.68;6.03;;;15.90;82.60;;;;;;6243209;23;20001;-74
2023/05/28 00:06:23;;;;;;;14.55;5.40;;;15.80;82.80;;;;;;6241925;23;20422;-74
2023/05/28 00:08:49;;;;;;;9.40;5.43;;;15.70;83.00;;;;;;6243367;23;19996;-74
2023/05/28 00:11:14;;;;;;;14.50;6.07;;;15.60;83.10;;;;;;6242735;23;20025;-74
2023/05/28 00:13:40;;;;;;;9.50;5.82;;;15.60;83.60;;;;;;6243222;23;20079;-73
2023/05/28 00:16:05;;;;;;;13.10;6.10;;;15.50;84.00;;;;;;6242881;23;20008;-74
2023/05/28 00:18:31;;;;;;;11.05;6.07;;;15.50;84.40;;;;;;6242773;23;20003;-74
2023/05/28 00:20:56;;;;;;;14.05;7.35;;;15.40;85.00;;;;;;6242577;23;19992;-74
2023/05/28 00:23:22;;;;;;;13.48;7.18;;;15.40;85.50;;;;;;6243046;23;20439;-74
2023/05/28 00:25:48;;;;;;;12.73;6.53;;;15.30;86.00;;;;;;6242779;23;20361;-74
2023/05/28 00:28:13;;;;;;;11.55;7.43;;;15.30;86.30;;;;;;6242566;23;20004;-74
2023/05/28 00:30:39;;;;;;;13.77;6.85;;;15.30;86.90;;;;;;6242884;23;20071;-74
2023/05/28 00:33:04;;;;;;;13.82;6.55;;;15.20;87.40;;;;;;6242811;23;20024;-74
2023/05/28 00:35:30;;;;;;;14.70;7.18;;;15.30;87.90;;;;;;6242024;23;20004;-74
2023/05/28 00:37:55;;;;;;;15.05;6.97;;;15.20;88.10;;;;;;6242757;23;20023;-74
2023/05/28 00:40:21;;;;;;;17.48;7.28;;;15.20;88.40;;;;;;6242528;23;20000;-74
2023/05/28 00:42:47;;;;;;;16.52;6.88;;;15.20;88.80;;;;;;6242851;23;20410;-74
2023/05/28 00:45:12;;;;;;;17.05;8.73;;;15.10;88.90;;;;;;6242410;23;20019;-74
2023/05/28 00:47:42;;;;;;;11.15;6.28;;;15.10;89.20;;;;;;6242766;23;20003;-74
2023/05/28 00:50:08;;;;;;;14.65;6.45;;;15.10;89.60;;;;;;6242054;23;20000;-74
2023/05/28 00:52:35;;;;;;;17.83;7.63;;;15.10;89.90;;;;;;6242413;23;20091;-74
2023/05/28 00:55:02;;;;;;;20.75;7.28;;;15.00;90.00;;;;;;6242481;23;20005;-74
2023/05/28 00:57:27;;;;;;;16.30;7.00;;;15.00;90.20;;;;;;6242556;23;20092;-74
2023/05/28 00:59:57;;;;;;;10.02;6.57;;;15.00;90.30;;;;;;6242856;23;20076;-74
2023/05/28 01:02:23;;;;;;;12.40;6.32;;;14.90;90.40;;;;;;6241986;23;20179;-74
2023/05/28 01:04:50;;;;;;;12.65;6.65;;;14.90;90.70;;;;;;6215086;23;20012;-74
2023/05/28 01:07:16;;;;;;;14.43;7.28;;;14.90;90.80;;;;;;6242296;23;20377;-74
2023/05/28 01:09:42;;;;;;;13.48;6.32;;;14.90;91.00;;;;;;6242566;23;20004;-74
2023/05/28 01:12:08;;;;;;;17.02;8.05;;;14.90;91.30;;;;;;6242712;23;20031;-74
2023/05/28 01:14:37;;;;;;;15.88;8.02;;;14.90;91.80;;;;;;6242061;23;20048;-74
2023/05/28 01:17:03;;;;;;;18.67;7.72;;;14.90;91.90;;;;;;6242554;23;20004;-74
2023/05/28 01:19:29;;;;;;;15.20;7.75;;;14.80;92.10;;;;;;6241627;23;20004;-74
2023/05/28 01:22:05;;;;;;;18.05;7.80;;;14.80;92.30;;;;;;6242370;23;20007;-74
2023/05/28 01:24:39;;;;;;;14.05;7.18;;;14.80;92.60;;;;;;6214514;23;20039;-75
2023/05/28 01:27:06;;;;;;;12.55;7.30;;;14.80;92.70;;;;;;6240478;23;20015;-74
2023/05/28 01:29:32;;;;;;;19.35;7.90;;;14.80;92.90;;;;;;6241967;23;20330;-74
2023/05/28 01:31:58;;;;;;;22.33;8.75;;;14.70;93.20;;;;;;6242205;23;20001;-75
2023/05/28 01:34:24;;;;;;;15.48;8.00;;;14.70;93.40;;;;;;6241445;23;20011;-74
2023/05/28 01:36:58;;;;;;;18.83;8.27;;;14.70;93.60;;;;;;6242414;23;20000;-74
2023/05/28 01:39:27;;;;;;;15.30;7.45;;;14.70;94.00;;;;;;6242146;23;19996;-74
2023/05/28 01:41:54;;;;;;;16.95;7.18;;;14.60;94.10;;;;;;6242414;23;19996;-74
2023/05/28 01:44:20;;;;;;;16.42;7.55;;;14.60;94.40;;;;;;6242117;23;20003;-74
2023/05/28 01:46:46;;;;;;;18.00;8.60;;;14.50;94.60;;;;;;6241704;23;20024;-74
2023/05/28 01:49:12;;;;;;;22.20;9.45;;;14.50;94.90;;;;;;6241891;23;20087;-73
2023/05/28 01:51:38;;;;;;;25.90;8.68;;;14.50;95.20;;;;;;6242205;23;20027;-74
2023/05/28 01:54:04;;;;;;;18.05;8.40;;;14.40;95.40;;;;;;6241520;23;20488;-74
2023/05/28 01:56:29;;;;;;;15.05;8.10;;;14.40;95.70;;;;;;6214238;23;20008;-74
2023/05/28 01:58:55;;;;;;;17.02;9.38;;;14.40;95.90;;;;;;6241950;23;19996;-74
2023/05/28 02:01:30;;;;;;;19.17;9.68;;;14.40;96.30;;;;;;6240544;23;20011;-74
2023/05/28 02:03:57;;;;;;;23.05;10.40;;;14.30;96.60;;;;;;6242085;23;20046;-74
2023/05/28 02:06:23;;;;;;;16.00;8.95;;;14.30;96.70;;;;;;6241193;23;20208;-74
2023/05/28 02:08:50;;;;;;;17.35;7.88;;;14.30;96.90;;;;;;6241693;23;20053;-74
2023/05/28 02:11:16;;;;;;;26.23;9.82;;;14.30;97.00;;;;;;6241142;23;20321;-74
2023/05/28 02:13:41;;;;;;;20.60;8.75;;;14.20;97.10;;;;;;6241747;23;20075;-74
2023/05/28 02:16:07;;;;;;;24.08;8.48;;;14.20;97.30;;;;;;6213903;23;20728;-74
2023/05/28 02:18:36;;;;;;;15.23;7.40;;;14.20;97.40;;;;;;6241161;23;20025;-74
2023/05/28 02:21:03;;;;;;;20.75;8.13;;;14.10;97.60;;;;;;6241509;23;20031;-74
2023/05/28 02:23:28;;;;;;;13.38;8.07;;;14.10;97.60;;;;;;6241380;23;20027;-74
2023/05/28 02:25:54;;;;;;;20.80;8.38;;;14.10;97.70;;;;;;6241053;23;20093;-74
2023/05/28 02:28:19;;;;;;;20.13;8.55;;;14.00;97.90;;;;;;6241104;23;20069;-74
2023/05/28 02:30:45;;;;;;;18.73;9.38;;;14.00;98.00;;;;;;6240913;23;20539;-74
2023/05/28 02:33:11;;;;;;;17.42;7.70;;;14.00;98.10;;;;;;6242571;23;20418;-74
2023/05/28 02:35:37;;;;;;;15.25;7.55;;;14.00;98.20;;;;;;6243197;23;20000;-74
2023/05/28 02:38:02;;;;;;;15.52;7.80;;;14.00;98.30;;;;;;6243091;23;20004;-74
2023/05/28 02:40:28;;;;;;;20.60;8.65;;;14.00;98.40;;;;;;6243148;23;20014;-74
2023/05/28 02:42:53;;;;;;;19.35;8.00;;;14.00;98.60;;;;;;6243537;23;20075;-74
2023/05/28 02:45:19;;;;;;;15.55;7.68;;;14.00;98.80;;;;;;6242300;23;20004;-74
2023/05/28 02:47:45;;;;;;;22.65;9.02;;;14.00;98.80;;;;;;6216270;23;20015;-74
2023/05/28 02:50:10;;;;;;;16.02;8.68;;;14.00;98.90;;;;;;6242693;23;20068;-74
2023/05/28 02:52:36;;;;;;;15.00;7.35;;;13.90;99.00;;;;;;6240700;23;20009;-75
2023/05/28 02:55:02;;;;;;;20.65;9.15;;;14.00;99.10;;;;;;6242358;23;20034;-75
2023/05/28 02:57:27;;;;;;;13.75;8.57;;;13.90;99.10;;;;;;6241591;23;19996;-74
2023/05/28 02:59:53;;;;;;;17.27;9.45;;;13.90;99.30;;;;;;6215364;23;20008;-74
2023/05/28 03:02:18;;;;;;;16.83;8.88;;;13.90;99.60;;;;;;6242901;23;20000;-73
2023/05/28 03:04:44;;;;;;;17.83;8.68;;;13.80;99.80;;;;;;6242877;23;20011;-74
2023/05/28 03:07:10;;;;;;;15.25;9.00;;;13.80;99.90;;;;;;6243044;23;20011;-74
2023/05/28 03:09:38;;;;;;;18.27;9.43;;;13.80;99.90;;;;;;6242916;23;20004;-74
2023/05/28 03:12:04;;;;;;;22.80;9.20;;;13.80;99.90;;;;;;6243054;23;20000;-74
2023/05/28 03:14:30;;;;;;;19.80;9.25;;;13.70;99.90;;;;;;6241877;23;20050;-74
2023/05/28 03:16:55;;;;;;;19.15;9.73;;;13.70;99.90;;;;;;6242987;23;20083;-74
2023/05/28 03:19:21;;;;;;;19.00;8.95;;;13.70;99.90;;;;;;6242453;23;20460;-74
2023/05/28 03:21:46;;;;;;;21.17;10.15;;;13.70;99.90;;;;;;6243010;23;19997;-74
2023/05/28 03:24:12;;;;;;;19.77;10.00;;;13.60;99.90;;;;;;6242408;23;20000;-73
2023/05/28 03:26:38;;;;;;;19.30;9.70;;;13.60;99.90;;;;;;6242327;23;20016;-73
2023/05/28 03:29:03;;;;;;;22.35;10.05;;;13.60;99.90;;;;;;6240718;23;20004;-74
2023/05/28 03:31:30;;;;;;;22.08;9.60;;;13.60;99.90;;;;;;6240767;23;20076;-74
2023/05/28 03:33:55;;;;;;;20.20;8.95;;;13.60;99.90;;;;;;6213567;23;20306;-73
2023/05/28 03:36:24;;;;;;;20.08;8.75;;;13.60;99.90;;;;;;6241674;23;20020;-73
2023/05/28 03:38:50;;;;;;;20.20;9.77;;;13.60;99.90;;;;;;6241090;23;20004;-73
2023/05/28 03:41:16;;;;;;;15.52;8.10;;;13.60;99.90;;;;;;6242302;23;20322;-74
2023/05/28 03:43:41;;;;;;;17.10;10.43;;;13.70;99.90;;;;;;6241653;23;20015;-73
2023/05/28 03:46:07;;;;;;;20.42;10.00;;;13.70;99.90;;;;;;6242697;23;20027;-73
2023/05/28 03:48:33;;;;;;;18.95;9.57;;;13.60;99.90;;;;;;6242466;23;20000;-74
2023/05/28 03:50:58;;;;;;;18.25;9.07;;;13.70;99.90;;;;;;6242645;23;20095;-73
2023/05/28 03:53:24;;;;;;;18.58;9.73;;;13.70;99.90;;;;;;6242211;23;20424;-73
2023/05/28 03:55:51;;;;;;;18.98;9.43;;;13.70;99.90;;;;;;6242306;23;20445;-73
2023/05/28 03:58:17;;;;;;;24.30;10.35;;;13.70;99.90;;;;;;6241598;23;19997;-73
2023/05/28 04:00:42;;;;;;;22.80;9.63;;;13.70;99.90;;;;;;6242659;23;20000;-73
2023/05/28 04:03:08;;;;;;;19.83;9.30;;;13.70;99.90;;;;;;6242209;23;20035;-73
2023/05/28 04:05:33;;;;;;;19.15;8.70;;;13.80;99.90;;;;;;6242273;23;20030;-74
2023/05/28 04:07:59;;;;;;;17.10;9.13;;;13.80;99.90;;;;;;6242273;23;20001;-73
2023/05/28 04:10:25;;;;;;;19.38;10.32;;;13.80;99.90;;;;;;6242012;23;20004;-73
2023/05/28 04:12:52;;;;;;;15.05;8.85;;;13.90;99.90;;;;;;6241981;23;20057;-73
2023/05/28 04:15:18;;;;;;;24.98;10.77;;;13.90;99.90;;;;;;6241869;23;20027;-73
2023/05/28 04:17:44;;;;;;;19.33;10.73;;;13.90;99.90;;;;;;6242374;23;20006;-73
2023/05/28 04:20:10;;;;;;;15.60;9.38;;;14.00;99.90;;;;;;6242297;23;20384;-74
2023/05/28 04:22:36;;;;;;;18.10;9.27;;;14.00;99.90;;;;;;6242350;23;19996;-73
2023/05/28 04:25:01;;;;;;;19.80;10.23;;;14.00;99.90;;;;;;6242575;23;20031;-73
2023/05/28 04:27:27;;;;;;;17.73;9.30;;;14.00;99.90;;;;;;6241248;23;20012;-74
2023/05/28 04:29:54;;;;;;;15.52;9.98;;;14.00;99.90;;;;;;6242348;23;20015;-72
2023/05/28 04:32:22;;;;;;;19.90;9.75;;;14.00;99.90;;;;;;6241654;23;20000;-72
2023/05/28 04:34:48;;;;;;;15.10;8.68;;;14.00;99.90;;;;;;6242057;23;20435;-72
2023/05/28 04:37:13;;;;;;;20.55;9.30;;;14.00;99.90;;;;;;6241864;23;19996;-73
2023/05/28 04:39:39;;;;;;;16.83;10.93;;;14.00;99.90;;;;;;6242352;23;20409;-73
2023/05/28 04:42:07;;;;;;;24.42;9.00;;;14.00;99.90;;;;;;6241386;23;19992;-72
2023/05/28 04:44:33;;;;;;;17.13;9.70;;;14.10;99.90;;;;;;6242227;23;20103;-72
2023/05/28 04:46:59;;;;;;;19.75;9.75;;;14.10;99.90;;;;;;6242057;23;20773;-72
2023/05/28 04:49:25;;;;;;;21.65;9.85;;;14.10;99.90;;;;;;6214759;23;20004;-72
2023/05/28 04:51:51;;;;;;;20.27;9.18;;;14.20;99.90;;;;;;6242081;23;20098;-72
2023/05/28 04:54:17;;;;;;;17.92;9.90;;;14.20;99.90;;;;;;6241561;23;20085;-72
2023/05/28 04:56:43;;;;;;;16.60;8.98;;;14.20;99.90;;;;;;6241317;23;20034;-73
2023/05/28 04:59:09;;;;;;;18.95;9.43;;;14.30;99.90;;;;;;6242196;23;20000;-73
2023/05/28 05:01:36;;;;;;;12.63;8.35;;;14.30;99.90;;;;;;6241869;23;20313;-72
2023/05/28 05:04:02;;;;;;;18.80;9.93;;;14.30;99.90;;;;;;6242193;23;20008;-73
2023/05/28 05:06:28;;;;;;;18.45;8.85;;;14.30;99.90;;;;;;6241398;23;20421;-73
2023/05/28 05:08:53;;;;;;;15.40;8.70;;;14.40;99.90;;;;;;6242380;23;20000;-73
2023/05/28 05:11:20;;;;;;;14.82;8.27;;;14.40;99.90;;;;;;6241172;23;20038;-73
2023/05/28 05:13:45;;;;;;;20.83;10.00;;;14.50;99.90;;;;;;6242336;23;20058;-73
2023/05/28 05:16:12;;;;;;;18.83;10.20;;;14.60;99.90;;;;;;6241718;23;20370;-73
2023/05/28 05:18:38;;;;;;;14.98;9.18;;;14.60;99.90;;;;;;6242106;23;20008;-73
2023/05/28 05:21:03;;;;;;;17.35;8.90;;;14.70;99.90;;;;;;6241857;23;20422;-73
2023/05/28 05:23:29;;;;;;;21.40;9.98;;;14.70;99.90;;;;;;6241766;23;19997;-73
2023/05/28 05:25:54;;;;;;;20.65;10.93;;;14.80;99.90;;;;;;6241018;23;20078;-73
2023/05/28 05:28:20;;;;;;;16.33;8.70;;;14.80;99.90;;;;;;6241789;23;20012;-73
2023/05/28 05:30:46;;;;;;;20.65;9.98;;;14.90;99.90;;;;;;6241778;23;20004;-73
2023/05/28 05:33:11;;;;;;;16.80;8.95;;;15.00;99.90;;;;;;6241504;23;20010;-73
2023/05/28 05:35:37;;;;;;;19.45;9.27;;;15.10;99.90;;;;;;6241754;23;20015;-73
2023/05/28 05:38:02;;;;;;;16.17;8.68;;;15.20;99.90;;;;;;6241908;23;19996;-73
2023/05/28 05:40:28;;;;;;;18.83;9.40;;;15.20;99.90;;;;;;6241049;23;20008;-73
2023/05/28 05:42:53;;;;;;;16.40;9.45;;;15.30;99.90;;;;;;6242424;23;20021;-73
2023/05/28 05:45:19;;;;;;;18.20;9.80;;;15.30;99.90;;;;;;6241336;23;20075;-73
2023/05/28 05:47:45;;;;;;;21.30;10.45;;;15.40;99.90;;;;;;6214320;23;20012;-73
2023/05/28 05:50:12;;;;;;;19.58;9.77;;;15.40;99.90;;;;;;6239884;23;20038;-74
2023/05/28 05:52:38;;;;;;;19.35;9.98;;;15.50;99.90;;;;;;6240119;23;20024;-73
2023/05/28 05:55:03;;;;;;;17.45;9.43;;;15.60;99.90;;;;;;6240811;23;20014;-73
2023/05/28 05:57:29;;;;;;;22.13;9.95;;;15.60;99.90;;;;;;6241630;23;20075;-74
2023/05/28 05:59:54;;;;;;;20.83;9.40;;;15.70;99.90;;;;;;6242267;23;20000;-75
2023/05/28 06:02:20;;;;;;;16.05;9.27;;;15.70;99.90;;;;;;6241593;23;20023;-75
2023/05/28 06:04:46;;;;;;;22.08;10.02;;;15.70;99.90;;;;;;6241663;23;20027;-74
2023/05/28 06:07:11;;;;;;;15.50;9.02;;;15.70;99.90;;;;;;6242474;23;20437;-74
2023/05/28 06:09:37;;;;;;;19.50;9.43;;;15.70;99.90;;;;;;6243205;23;20477;-74
2023/05/28 06:12:02;;;;;;;20.17;8.95;;;15.70;99.90;;;;;;6243922;23;19996;-74
2023/05/28 06:14:28;;;;;;;17.50;8.48;;;15.70;99.90;;;;;;6243589;23;20090;-74
2023/05/28 06:16:54;;;;;;;14.75;8.68;;;15.70;99.90;;;;;;6243734;23;20418;-74
2023/05/28 06:19:19;;;;;;;13.98;8.93;;;15.70;99.90;;;;;;6243310;23;20006;-74
2023/05/28 06:21:45;;;;;;;19.33;10.13;;;15.70;99.90;;;;;;6243764;23;19996;-74
2023/05/28 06:24:11;;;;;;;19.45;10.55;;;15.70;99.90;;;;;;6242932;23;20012;-74
2023/05/28 06:26:36;;;;;;;16.92;9.40;;;15.80;99.90;;;;;;6243459;23;20319;-74
2023/05/28 06:29:02;;;;;;;16.10;8.88;;;15.80;99.90;;;;;;6243899;23;19997;-74
2023/05/28 06:31:27;;;;;;;23.23;9.70;;;15.80;99.90;;;;;;6243466;23;20006;-74
2023/05/28 06:33:54;;;;;;;20.83;10.00;;;15.70;99.90;;;;;;6243747;23;20004;-74
2023/05/28 06:36:19;;;;;;;15.38;8.32;;;15.70;99.90;;;;;;6243240;23;20051;-74
2023/05/28 06:38:45;;;;;;;18.85;9.68;;;15.70;99.90;;;;;;6243089;23;20004;-74
2023/05/28 06:41:10;;;;;;;13.35;9.40;;;15.70;99.90;;;;;;6243082;23;20326;-74
2023/05/28 06:43:38;;;;;;;15.07;8.48;;;15.70;99.90;;;;;;6243979;23;20000;-74
2023/05/28 06:46:04;;;;;;;17.88;8.88;;;15.70;99.90;;;;;;6243438;23;20036;-74
2023/05/28 06:48:30;;;;;;;17.70;9.52;;;15.60;99.90;;;;;;6243163;23;20062;-74
2023/05/28 06:50:57;;;;;;;17.65;10.15;;;15.70;99.90;;;;;;6243590;23;20004;-74
2023/05/28 06:53:22;;;;;;;16.30;9.02;;;15.70;99.90;;;;;;6242476;23;20004;-75
2023/05/28 06:55:48;;;;;;;20.27;9.00;;;15.70;99.90;;;;;;6243401;23;20015;-74
2023/05/28 06:58:13;;;;;;;21.85;10.05;;;15.70;99.90;;;;;;6242959;23;20000;-74
2023/05/28 07:00:39;;;;;;;19.35;9.80;;;15.70;99.90;;;;;;6216571;23;20367;-74
2023/05/28 07:03:05;;;;;;;19.67;11.00;;;15.70;99.90;;;;;;6243395;23;20153;-74
2023/05/28 07:05:31;;;;;;;15.70;8.63;;;15.70;99.90;;;;;;6243400;23;20162;-74
2023/05/28 07:07:56;;;;;;;17.55;9.63;;;15.80;99.90;;;;;;6242746;23;20000;-74
2023/05/28 07:10:23;;;;;;;15.07;9.55;;;15.90;99.90;;;;;;6243056;23;20158;-74
2023/05/28 07:12:48;;;;;;;12.38;7.47;;;15.90;99.90;;;;;;6243144;23;20035;-74
2023/05/28 07:15:15;;;;;;;20.00;9.15;;;16.00;99.90;;;;;;6242927;23;20008;-75
2023/05/28 07:17:41;;;;;;;19.10;10.27;;;16.10;99.90;;;;;;6242963;23;20000;-78
2023/05/28 07:20:07;;;;;;;18.63;9.40;;;16.20;99.90;;;;;;6242135;23;20630;-78
2023/05/28 07:22:33;;;;;;;19.98;9.63;;;16.30;99.90;;;;;;6242877;23;20022;-78
2023/05/28 07:24:58;;;;;;;14.75;7.78;;;16.40;99.90;;;;;;6243045;23;20469;-78
2023/05/28 07:27:23;;;;;;;20.10;9.07;;;16.50;99.90;;;;;;6242255;23;20434;-78
2023/05/28 07:29:49;;;;;;;17.38;7.55;;;16.70;99.80;;;;;;6215955;23;20000;-79
2023/05/28 07:32:15;;;;;;;13.00;7.45;;;16.80;99.60;;;;;;6242440;23;20003;-79
2023/05/28 07:34:41;;;;;;;14.73;7.15;;;16.90;99.20;;;;;;6241985;23;20004;-79
2023/05/28 07:37:07;;;;;;;13.35;7.38;;;17.00;99.10;;;;;;6242819;23;20004;-79
2023/05/28 07:39:32;;;;;;;15.45;6.75;;;17.20;98.90;;;;;;6242598;23;20444;-79
2023/05/28 07:41:58;;;;;;;11.30;7.40;;;17.30;98.60;;;;;;6242537;23;20019;-79
2023/05/28 07:44:23;;;;;;;13.00;7.07;;;17.50;98.30;;;;;;6215020;23;20004;-79
2023/05/28 07:46:49;;;;;;;14.80;6.50;;;17.70;98.00;;;;;;6242223;23;20000;-79
2023/05/28 07:49:16;;;;;;;11.48;6.18;;;17.90;97.60;;;;;;6241535;23;20011;-78
2023/05/28 07:51:42;;;;;;;15.48;7.53;;;18.10;97.20;;;;;;6242321;23;20303;-79
2023/05/28 07:54:07;;;;;;;16.90;7.47;;;18.30;96.80;;;;;;6242626;23;19997;-79
2023/05/28 07:56:33;;;;;;;10.73;5.50;;;18.50;96.70;;;;;;6215539;23;20363;-79
2023/05/28 07:58:58;;;;;;;16.20;6.15;;;18.70;96.40;;;;;;6242676;23;20035;-79
2023/05/28 08:01:24;;;;;;;10.38;6.03;;;18.80;96.20;;;;;;6242406;23;20079;-79
2023/05/28 08:03:53;;;;;;;16.42;6.10;;;18.90;95.50;;;;;;6242191;23;20049;-79
2023/05/28 08:06:20;;;;;;;14.43;6.07;;;19.10;95.10;;;;;;6216040;23;20016;-79
2023/05/28 08:08:46;;;;;;;11.75;5.82;;;19.10;94.80;;;;;;6242586;23;20063;-79
2023/05/28 08:11:13;;;;;;;12.70;5.03;;;19.20;94.50;;;;;;6242409;23;19999;-79
2023/05/28 08:13:39;;;;;;;14.82;5.82;;;19.30;94.20;;;;;;6215714;23;20019;-78
2023/05/28 08:16:05;;;;;;;10.85;5.75;;;19.40;93.70;;;;;;6215425;23;20008;-80
2023/05/28 08:18:30;;;;;;;11.82;5.55;;;19.50;93.40;;;;;;6241332;23;20075;-80
2023/05/28 08:20:56;;;;;;;13.73;5.15;;;19.60;93.20;;;;;;6242101;23;20382;-79
2023/05/28 08:23:21;;;;;;;15.30;6.45;;;19.80;92.40;;;;;;6213935;23;20385;-80
2023/05/28 08:25:47;;;;;;;9.88;5.13;;;19.80;91.90;;;;;;6241682;23;20031;-79
2023/05/28 08:28:16;;;;;;;10.68;4.43;;;19.90;91.60;;;;;;6241694;23;20310;-79
2023/05/28 08:30:41;;;;;;;10.10;5.43;;;20.00;91.30;;;;;;6215372;23;20070;-79
2023/05/28 08:33:07;;;;;;;8.57;4.82;;;20.10;91.20;;;;;;6241613;23;20418;-78
2023/05/28 08:35:32;;;;;;;14.13;4.85;;;20.20;91.00;;;;;;6241788;23;19996;-79
2023/05/28 08:37:58;;;;;;;10.75;5.38;;;20.30;90.80;;;;;;6241847;23;20027;-79
2023/05/28 08:40:25;;;;;;;9.10;4.88;;;20.40;90.00;;;;;;6241703;23;20004;-78
2023/05/28 08:42:51;;;;;;;9.75;4.55;;;20.60;89.30;;;;;;6242002;23;20418;-79
2023/05/28 08:45:16;;;;;;;8.05;4.10;;;20.70;87.50;;;;;;6241712;23;20007;-78
2023/05/28 08:47:43;;;;;;;9.98;4.18;;;20.80;86.50;;;;;;6241822;23;20425;-79
2023/05/28 08:50:10;;;;;;;7.85;3.60;;;21.00;83.80;;;;;;6242827;23;20311;-79
2023/05/28 08:52:36;;;;;;;9.40;4.45;;;21.00;81.80;;;;;;6242032;23;20341;-79
2023/05/28 08:55:03;;;;;;;7.55;3.63;;;21.00;81.70;;;;;;6241776;23;20032;-80
2023/05/28 08:57:30;;;;;;;7.93;4.65;;;21.00;81.60;;;;;;6241509;23;20011;-80
2023/05/28 08:59:58;;;;;;;9.05;4.65;;;21.00;80.80;;;;;;6241778;23;20030;-80
2023/05/28 09:02:25;;;;;;;10.60;4.22;;;21.00;80.60;;;;;;6214055;23;20000;-78
2023/05/28 09:04:50;;;;;;;8.18;3.67;;;21.00;80.80;;;;;;6214786;23;20483;-79
2023/05/28 09:07:16;;;;;;;6.75;4.00;;;21.10;81.20;;;;;;6241258;23;20000;-79
2023/05/28 09:09:42;;;;;;;11.27;4.18;;;21.20;80.70;;;;;;6240835;23;20330;-78
2023/05/28 09:12:11;;;;;;;7.82;3.72;;;21.20;79.90;;;;;;6241721;23;20057;-79
2023/05/28 09:14:39;;;;;;;7.63;4.05;;;21.30;80.00;;;;;;6214582;23;20043;-79
2023/05/28 09:17:05;;;;;;;8.50;3.97;;;21.50;80.70;;;;;;6240840;23;20046;-78
2023/05/28 09:19:32;;;;;;;8.68;3.95;;;21.60;78.80;;;;;;6241238;23;20011;-78
2023/05/28 09:21:59;;;;;;;13.77;4.55;;;21.70;76.80;;;;;;6241682;23;20034;-79
2023/05/28 09:24:28;;;;;;;11.43;4.65;;;21.80;76.70;;;;;;6241021;23;20004;-78
2023/05/28 09:26:57;;;;;;;12.30;4.60;;;21.80;76.40;;;;;;6241496;23;20051;-78
2023/05/28 09:29:24;;;;;;;10.27;4.10;;;21.90;76.60;;;;;;6241205;23;20015;-78
2023/05/28 09:31:57;;;;;;;9.07;4.07;;;21.90;76.40;;;;;;6241364;23;20023;-78
2023/05/28 09:34:27;;;;;;;12.23;4.95;;;22.00;76.00;;;;;;6241106;23;20011;-78
2023/05/28 09:36:54;;;;;;;12.52;4.80;;;22.00;75.70;;;;;;6241364;23;20083;-78
2023/05/28 09:39:25;;;;;;;8.23;4.28;;;22.00;76.00;;;;;;6240707;23;19997;-78
2023/05/28 09:42:05;;;;;;;11.75;4.28;;;22.20;76.00;;;;;;6240994;23;20066;-78
2023/05/28 09:44:32;;;;;;;10.48;3.65;;;22.30;75.40;;;;;;6241407;23;20015;-78
2023/05/28 09:46:58;;;;;;;9.02;4.35;;;22.30;75.60;;;;;;6240727;23;20012;-78
2023/05/28 09:49:23;;;;;;;10.40;4.13;;;22.40;74.90;;;;;;6239919;23;20024;-78
2023/05/28 09:51:52;;;;;;;6.22;3.55;;;22.50;73.80;;;;;;6240381;23;20008;-77
2023/05/28 09:54:19;;;;;;;6.18;3.08;;;22.60;73.70;;;;;;6240788;23;20003;-78
2023/05/28 09:56:51;;;;;;;7.05;4.28;;;22.60;73.10;;;;;;6241696;23;20085;-78
2023/05/28 09:59:19;;;;;;;11.07;4.20;;;22.70;72.90;;;;;;6241000;23;20004;-78
2023/05/28 10:01:59;;;;;;;8.15;4.07;;;22.80;72.80;;;;;;6240262;23;20001;-78
2023/05/28 10:04:33;;;;;;;11.30;4.45;;;22.80;72.40;;;;;;6240400;23;20008;-78
2023/05/28 10:06:59;;;;;;;13.77;5.07;;;22.70;71.70;;;;;;6241265;23;20004;-78
2023/05/28 10:09:27;;;;;;;12.88;4.50;;;22.70;71.80;;;;;;6240521;23;20007;-78
2023/05/28 10:12:04;;;;;;;9.82;4.57;;;22.70;72.20;;;;;;6240822;23;20663;-76
2023/05/28 10:14:30;;;;;;;9.25;4.72;;;22.80;72.10;;;;;;6214261;23;20457;-77
2023/05/28 10:16:57;;;;;;;10.43;4.85;;;22.70;72.30;;;;;;6241929;23;20142;-77
2023/05/28 10:19:23;;;;;;;9.70;4.75;;;22.70;72.90;;;;;;6241841;23;20030;-76
2023/05/28 10:21:49;;;;;;;11.13;4.68;;;22.60;73.50;;;;;;6241296;23;20004;-77
2023/05/28 10:24:15;;;;;;;10.85;4.60;;;22.60;73.80;;;;;;6240720;23;20271;-77
2023/05/28 10:26:41;;;;;;;12.32;5.13;;;22.70;73.50;;;;;;6240619;23;20023;-77
2023/05/28 10:29:08;;;;;;;11.32;5.70;;;22.70;73.20;;;;;;6240444;23;20095;-77
2023/05/28 10:31:34;;;;;;;12.07;5.30;;;22.70;74.10;;;;;;6242246;23;20027;-77
2023/05/28 10:33:59;;;;;;;16.85;5.40;;;22.80;74.20;;;;;;6242595;23;20001;-77
2023/05/28 10:36:25;;;;;;;11.73;5.40;;;22.90;73.80;;;;;;6241046;23;20000;-77
2023/05/28 10:38:51;;;;;;;11.25;6.22;;;22.90;73.50;;;;;;6240927;23;20000;-77
2023/05/28 10:41:21;;;;;;;11.20;5.00;;;23.00;73.60;;;;;;6213233;23;20007;-76
2023/05/28 10:43:47;;;;;;;10.55;5.20;;;23.00;72.90;;;;;;6240009;23;20024;-75
2023/05/28 10:46:23;;;;;;;8.02;4.55;;;23.00;71.60;;;;;;6239620;23;20028;-75
2023/05/28 10:49:12;;;;;;;10.15;5.30;;;23.00;71.90;;;;;;6213259;23;20079;-75
2023/05/28 10:51:50;;;;;;;11.60;4.63;;;23.10;72.40;;;;;;6240869;23;20001;-75
2023/05/28 10:54:38;;;;;;;11.50;5.85;;;23.00;72.50;;;;;;6241462;23;20020;-75
2023/05/28 10:57:17;;;;;;;14.52;5.00;;;22.90;72.90;;;;;;6242563;23;20023;-75
2023/05/28 10:59:51;;;;;;;12.05;6.18;;;22.90;75.00;;;;;;6242008;23;20517;-75
2023/05/28 11:02:28;;;;;;;13.95;5.40;;;22.90;74.00;;;;;;6242044;23;20480;-76
2023/05/28 11:05:01;;;;;;;10.88;5.00;;;23.00;73.30;;;;;;6215071;23;20004;-76
2023/05/28 11:07:32;;;;;;;11.65;5.80;;;23.00;72.90;;;;;;6241686;23;20069;-75
2023/05/28 11:09:59;;;;;;;11.73;4.75;;;23.10;73.30;;;;;;6242138;23;20004;-75
2023/05/28 11:12:30;;;;;;;12.57;5.05;;;23.10;73.00;;;;;;6241767;23;20004;-75
2023/05/28 11:14:56;;;;;;;7.72;4.35;;;23.10;72.60;;;;;;6242703;23;20091;-74
2023/05/28 11:17:22;;;;;;;9.07;4.75;;;23.00;71.70;;;;;;6241924;23;20064;-75
2023/05/28 11:19:49;;;;;;;10.85;5.80;;;23.00;71.80;;;;;;6242189;23;20098;-75
2023/05/28 11:22:17;;;;;;;8.55;4.57;;;23.00;71.80;;;;;;6241952;23;20096;-76
2023/05/28 11:24:59;;;;;;;10.65;7.40;;;23.00;71.90;;;;;;6242477;23;20080;-72
2023/05/28 11:27:28;;;;;;;10.32;6.03;;;23.10;72.10;;;;;;6241614;23;20012;-75
2023/05/28 11:29:57;;;;;;;12.68;5.88;;;23.10;71.70;;;;;;6242790;23;20000;-75
2023/05/28 11:32:24;;;;;;;9.30;4.75;;;23.10;71.30;;;;;;6241924;23;20066;-74
2023/05/28 11:34:51;;;;;;;12.88;4.95;;;23.10;71.40;;;;;;6241969;23;20008;-74
2023/05/28 11:37:22;;;;;;;11.60;5.13;;;23.20;71.60;;;;;;6241561;23;19996;-75
2023/05/28 11:39:51;;;;;;;11.38;5.50;;;23.20;71.20;;;;;;6242362;23;20004;-74
2023/05/28 11:42:18;;;;;;;12.27;5.50;;;23.20;71.50;;;;;;6241185;23;20000;-75
2023/05/28 11:44:45;;;;;;;10.70;5.32;;;23.20;70.90;;;;;;6242483;23;20060;-74
2023/05/28 11:47:11;;;;;;;8.52;4.65;;;23.20;70.70;;;;;;6241937;23;20005;-74
2023/05/28 11:49:37;;;;;;;9.65;5.25;;;23.20;70.90;;;;;;6242583;23;20394;-74
2023/05/28 11:52:03;;;;;;;9.48;4.53;;;23.30;71.00;;;;;;6242246;23;20004;-73
2023/05/28 11:54:28;;;;;;;11.00;4.22;;;23.40;71.50;;;;;;6242130;23;20461;-73
2023/05/28 11:56:54;;;;;;;9.52;4.45;;;23.40;71.00;;;;;;6240263;23;20000;-73
2023/05/28 11:59:26;;;;;;;8.98;3.35;;;23.50;70.40;;;;;;6242079;23;20004;-73
2023/05/28 12:01:54;;;;;;;8.45;4.20;;;23.50;69.20;;;;;;6242221;23;20015;-73
2023/05/28 12:04:26;;;;;;;9.73;4.82;;;23.60;69.80;;;;;;6241483;23;19996;-73
2023/05/28 12:06:53;;;;;;;10.93;4.88;;;23.70;69.30;;;;;;6241557;23;20492;-73
2023/05/28 12:09:19;;;;;;;7.55;3.83;;;23.60;67.50;;;;;;6242134;23;20000;-73
2023/05/28 12:12:01;;;;;;;10.43;4.00;;;23.60;67.80;;;;;;6241396;23;20054;-74
2023/05/28 12:14:26;;;;;;;8.35;3.60;;;23.60;67.70;;;;;;6242084;23;20058;-73
2023/05/28 12:16:52;;;;;;;9.98;3.85;;;23.80;68.50;;;;;;6242571;23;20000;-73
2023/05/28 12:19:17;;;;;;;10.93;4.95;;;23.90;68.00;;;;;;6242029;23;19996;-73
2023/05/28 12:21:45;;;;;;;10.05;4.15;;;24.00;66.70;;;;;;6215399;23;20004;-73
2023/05/28 12:24:15;;;;;;;8.45;4.15;;;24.00;66.10;;;;;;6215085;23;20054;-73
2023/05/28 12:26:42;;;;;;;8.77;4.47;;;24.10;65.80;;;;;;6241183;23;20338;-74
2023/05/28 12:29:08;;;;;;;8.82;4.10;;;24.20;66.30;;;;;;6215293;23;20031;-73
2023/05/28 12:31:34;;;;;;;13.10;4.82;;;24.30;65.90;;;;;;6241826;23;20015;-73
2023/05/28 12:33:59;;;;;;;7.47;3.90;;;24.40;66.20;;;;;;6215779;23;20004;-73
2023/05/28 12:36:25;;;;;;;8.43;4.45;;;24.50;65.40;;;;;;6241893;23;20004;-73